Terminal Aerodrome Forecast
Issued by NWS

Home | Current Version | Previous Version | Text Only | Print | Product List | Glossary On
Versions: 1 2 3 4 5 6 7 8 9 10 11 12 13 14
000
FTUS46 KMFR 021139
TAFLMT
TAF
KLMT 021139Z 0212/0312 VRB03KT 1 1/2SM FU FEW025 SCT060
     FM021800 VRB04KT 5SM FU SCT060
     FM030000 31011KT 6SM FU VCTS BKN060CB
     FM030500 VRB03KT 4SM FU VCTS BKN060CB=

USA.gov is the U.S. government's official web portal to all federal, state and local government web resources and services.